ADDS METAR Data INFO
IDs: Format: Raw Decoded Include TAF

Data at: 0923 UTC 13 Dec 2017

KBML 130852Z AUTO 27008KT 5SM -SN OVC026 M07/M09 A2919 RMK AO2 SLP902 P0001 60001 T10671094 53003
KBML 130752Z AUTO VRB04KT 9SM -SN OVC023 M06/M09 A2918 RMK AO2 SNB20 SLP899 P0000 T10611089
KBML 130652Z AUTO VRB03KT 10SM OVC016 M06/M07 A2918 RMK AO2 SLP898 T10561072
KBML 130609Z AUTO VRB06KT 9SM FEW008 OVC015 M04/M06 A2919 RMK AO2 T10441061
KBML 130602Z AUTO 30006KT 10SM SCT008 OVC014 M04/M06 A2918 RMK AO2 T10391056
KBML 130552Z AUTO VRB03KT 10SM BKN008 OVC014 M03/M05 A2918 RMK AO2 SLP898 60024 T10331050 11033 21050 58026
KBML 130528Z AUTO 00000KT 10SM OVC009 M04/M06 A2919 RMK AO2 CIG 008V012 T10441056
KBML 130511Z AUTO 11003KT 10SM BKN011 OVC025 M04/M06 A2919 RMK AO2 T10441056
KBML 130452Z AUTO 00000KT 7SM SCT013 BKN021 OVC027 M04/M06 A2922 RMK AO2 SNE52 SLP911 P0000 T10441056 410391128
KBML 130434Z AUTO 13005KT 4SM -SN BR FEW012 BKN027 OVC050 M04/M06 A2924 RMK AO2 P0000 T10441056
KBML 130410Z AUTO 00000KT 2SM -SN BR BKN019 OVC050 M04/M05 A2925 RMK AO2 P0000 T10441050
KBML 130352Z AUTO 00000KT 1SM -SN BR VV017 M04/M06 A2925 RMK AO2 SLP923 P0004 T10441056
KBML 130336Z AUTO 00000KT 1 1/4SM -SN BR OVC018 M04/M05 A2926 RMK AO2 P0003 T10441050
KBML 130327Z AUTO 00000KT 1SM -SN BR VV014 M04/M05 A2925 RMK AO2 P0002 T10441050
KBML 130256Z AUTO 00000KT 3/4SM -SN BR VV014 M04/M05 A2926 RMK AO2 P0000 T10441050
KBML 130252Z AUTO 00000KT 1SM -SN BR VV015 M04/M05 A2926 RMK AO2 SLP927 P0004 60020 T10441050 56027
KBML 130237Z AUTO 00000KT 1 1/4SM -SN BR OVC018 M04/M05 A2926 RMK AO2 P0003 T10441050
KBML 130201Z AUTO 09003KT 1SM -SN BR VV014 M04/M05 A2928 RMK AO2 P0001 T10441050
KBML 130152Z AUTO 00000KT 1 1/2SM -SN BR OVC014 M04/M05 A2929 RMK AO2 SLP937 P0006 T10391050
KBML 130136Z AUTO 00000KT 1SM -SN BR VV012 M04/M06 A2930 RMK AO2 P0005 T10441056
KBML 130052Z AUTO 35004KT 3/4SM -SN BR VV008 M04/M05 A2931 RMK AO2 SLP944 P0010 T10391050
KBML 122352Z AUTO 00000KT 1/2SM SN FZFG VV007 M05/M06 A2934 RMK AO2 SLP955 P0010 60025 T10501056 11044 21067 58027
KBML 122301Z AUTO 00000KT 1/2SM SN FZFG VV005 M05/M06 A2938 RMK AO2 P0001 T10501056
KBML 122252Z AUTO 00000KT 1/4SM +SN FZFG VV005 M05/M06 A2939 RMK AO2 SLP971 P0009 T10501056
KBML 122250Z AUTO 00000KT 1/4SM +SN FZFG VV005 M05/M06 A2939 RMK AO2 P0008
KBML 122222Z AUTO 34003KT 1/2SM SN FZFG VV008 M04/M06 A2940 RMK AO2 P0003 T10441056
KBML 122206Z AUTO 30003KT 3/4SM -SN BR VV010 M05/M06 A2942 RMK AO2 P0001 T10501056
KBML 122152Z AUTO 00000KT 1SM -SN BR VV011 M05/M06 A2943 RMK AO2 SLP985 P0004 T10501061
KBML 122137Z AUTO 00000KT 3/4SM -SN BR VV011 M05/M06 A2944 RMK AO2 P0003 T10501061
KBML 122116Z AUTO 34003KT 1SM -SN BR VV013 M05/M06 A2946 RMK AO2 P0002 T10501061
KBML 122102Z AUTO 00000KT 1/2SM SN FZFG VV014 M05/M06 A2946 RMK AO2 P0001 T10501061
KBML 122052Z AUTO VRB03KT 1/2SM SN FZFG VV015 M05/M07 A2947 RMK AO2 SLP998 P0001 60002 T10501067 58025
KBML 121952Z AUTO 00000KT 3/4SM -SN BR BKN015 OVC023 M06/M07 A2951 RMK AO2 SLP012 P0001 T10561067
KBML 121932Z AUTO 33003KT 3/4SM -SN BR SCT017 OVC023 M06/M07 A2952 RMK AO2 P0001 T10561072
KBML 121852Z AUTO 34006KT 1 1/4SM -SN BR OVC021 M06/M08 A2954 RMK AO2 SLP024 P0000 T10611083
KBML 121847Z AUTO 34005KT 1 1/2SM -SN BR BKN021 OVC027 M06/M08 A2954 RMK AO2 P0000
KBML 121827Z AUTO 33004KT 2SM -SN BR BKN020 OVC026 M06/M08 A2955 RMK AO2 P0000 T10611083
KBML 121818Z AUTO 34003KT 1 3/4SM -SN BR OVC018 M07/M08 A2956 RMK AO2 P0000 T10671083
KBML 121752Z AUTO 34003KT 1 1/4SM -SN BR OVC020 M07/M09 A2958 RMK AO2 SLP039 P0000 60008 T10671089 11067 21094 56056
KBML 121714Z AUTO 33004KT 1 1/2SM -SN BR BKN022 OVC035 M07/M09 A2961 RMK AO2 P0000 T10721094
KBML 121652Z AUTO 34005KT 1 1/2SM -SN BR SCT023 BKN034 OVC045 M07/M09 A2963 RMK AO2 SLP056 P0001 T10721094
KBML 121649Z AUTO 34004KT 1 1/2SM -SN BR SCT023 BKN032 OVC045 M07/M09 A2963 RMK AO2 PRESFR P0001
KBML 121622Z AUTO 32004KT 1 1/4SM -SN BR BKN019 OVC027 M08/M10 A2966 RMK AO2 P0000 T10781100
KBML 121615Z AUTO 33004KT 3/4SM -SN BR BKN021 OVC027 M08/M10 A2967 RMK AO2 PRESFR P0000 T10831100
KBML 121552Z AUTO 33004KT 1 1/4SM -SN BR BKN026 OVC038 M08/M10 A2969 RMK AO2 SLP079 P0004 T10831100
KBML 121538Z AUTO 33003KT 1SM -SN BR BKN018 OVC040 M08/M11 A2971 RMK AO2 P0004 T10831106
KBML 121530Z AUTO 33004KT 1/2SM SN FZFG VV010 M08/M11 A2971 RMK AO2 P0004 T10831106
KBML 121452Z AUTO 33004KT 1/4SM +SN FZFG VV008 M09/M11 A2975 RMK AO2 SLP099 P0003 60003 T10891106 56004
KBML 121444Z AUTO 34006KT 1/4SM SN FZFG BKN012 OVC022 M09/M11 A2976 RMK AO2 P0002 T10891106
KBML 121406Z AUTO 34005KT 3/4SM -SN BR BKN020 OVC027 M09/M11 A2976 RMK AO2 P0000 T10891111
KBML 121352Z AUTO 33005KT 1 1/4SM -SN BR OVC026 M09/M11 A2976 RMK AO2 SNB02 SLP102 P0000 T10941111
KBML 121350Z AUTO 34004KT 1 1/4SM -SN BR OVC028 M09/M11 A2976 RMK AO2 SNB02 P0000
KBML 121334Z AUTO 36003KT 3/4SM -SN BR OVC026 M09/M11 A2976 RMK AO2 SNB02 P0000 T10891111
KBML 121328Z AUTO 01008KT 1 1/2SM -SN BKN028 OVC034 M09/M12 A2976 RMK AO2 SNB02 P0000 T10891117
KBML 121326Z AUTO 36006KT 2SM -SN SCT025 OVC033 M09/M12 A2976 RMK AO2 SNB02 P0000 T10891117
KBML 121318Z AUTO 34007KT 3SM -SN SCT025 OVC038 M09/M12 A2977 RMK AO2 SNB02 P0000 T10891117
KBML 121252Z AUTO 35008KT 10SM BKN023 OVC037 M09/M11 A2976 RMK AO2 SLP103 T10891111
KBML 121204Z AUTO 20011KT 10SM BKN025 OVC031 M07/M11 A2980 RMK AO2 T10721111
KBML 121152Z AUTO 18009KT 10SM OVC031 M07/M11 A2981 RMK AO2 SNE03 SLP117 P0000 60000 T10721111 11072 21117 58024
KBML 121052Z AUTO 33003KT 7SM -SN OVC045 M10/M12 A2984 RMK AO2 SLP128 P0000 T11001117
KBML 121035Z AUTO 35005KT 3SM -SN BR OVC033 M10/M12 A2985 RMK AO2 P0000 T11001117
KBML 121024Z AUTO 34004KT 2 1/2SM -SN BR OVC027 M10/M12 A2985 RMK AO2 P0000 T11001117
KBML 121017Z AUTO 34005KT 3SM -SN BR OVC027 M10/M12 A2986 RMK AO2 P0000 T11001122
KBML 120952Z AUTO 33004KT 6SM -SN BR OVC043 M10/M12 A2986 RMK AO2 SLP135 P0000 T11001122
KBML 120852Z AUTO 34003KT 4SM -SN BR OVC043 M11/M12 A2988 RMK AO2 SLP141 P0000 60000 T11061122 56020
KBML 120813Z AUTO 00000KT 3SM -SN BR BKN039 OVC050 M11/M12 A2989 RMK AO2 P0000 T11061122
KBML 120806Z AUTO 00000KT 2 1/2SM -SN BR OVC040 M11/M13 A2990 RMK AO2 P0000 T11061128
KBML 120752Z AUTO VRB03KT 4SM -SN BR OVC040 M11/M13 A2991 RMK AO2 SNB29 SLP150 P0000 T11061128
KBML 120652Z AUTO 00000KT 10SM OVC047 M11/M13 A2991 RMK AO2 SLP151 T11111128
KBML 120552Z AUTO 00000KT 10SM OVC100 M12/M13 A2994 RMK AO2 SLP161 I6000 T11171133 11111 21144 58004
KBML 120452Z AUTO 35003KT 10SM OVC110 M12/M13 A2995 RMK AO2 SLP164 T11171133 410221150
KBML 120352Z AUTO 00000KT 10SM OVC110 M12/M13 A2995 RMK AO2 SLP163 T11171128
KBML 120252Z AUTO 00000KT 10SM BKN100 M12/M13 A2995 RMK AO2 SLP164 I3000 T11171133 55008
KBML 120152Z AUTO 00000KT 10SM CLR M13/M15 A2994 RMK AO2 SLP162 T11331150
KBML 120052Z AUTO 33003KT 10SM CLR M13/M15 A2997 RMK AO2 SLP169 I1000 T11281150
KBML 112352Z AUTO 00000KT 10SM CLR M14/M16 A2998 RMK AO2 SLP175 60000 I1000 I6000 T11391156 11039 21150 51017
KBML 112252Z AUTO 00000KT 10SM CLR M13/M14 A2996 RMK AO2 SLP170 I1000 T11281139
KBML 112152Z AUTO 00000KT 10SM CLR M09/M13 A2995 RMK AO2 SLP162 T10891128
KBML 112133Z AUTO VRB03KT 10SM SCT027 M07/M12 A2994 RMK AO2 T10721122